Time;durP1;ratioP1;P1;durP2;ratioP2;P2;SDS_P1;SDS_P2;PMS_P1;PMS_P2;Temp;Humidity;BMP_temperature;BMP_pressure;BME280_temperature;BME280_humidity;BME280_pressure;Samples;Min_cycle;Max_cycle;Signal;HPM_P1;HPM_P2
2021/06/08 06:58:22;;;;;;;9.82;8.07;;;22.90;99.90;;;25.41;49.42;101337.28;4980477;28;20039;-85
2021/06/08 07:00:52;;;;;;;10.45;8.23;;;23.00;99.90;;;25.03;50.22;101339.75;4982060;28;20460;-85
2021/06/08 07:03:30;;;;;;;12.15;9.60;;;22.70;99.90;;;24.82;50.30;101343.88;4963684;28;20066;-85
2021/06/08 07:05:59;;;;;;;17.63;12.18;;;22.50;99.90;;;24.01;49.85;101349.03;4981429;28;20023;-84
2021/06/08 07:08:28;;;;;;;16.38;11.60;;;22.20;99.90;;;23.68;51.17;101343.44;4980977;28;20030;-85
2021/06/08 07:10:56;;;;;;;10.73;9.02;;;21.90;99.90;;;23.49;52.63;101345.78;4965125;28;20090;-83
2021/06/08 07:13:26;;;;;;;11.05;7.47;;;21.60;99.90;;;23.42;52.89;101340.19;4982592;28;20098;-85
2021/06/08 07:15:54;;;;;;;11.02;7.55;;;21.40;99.90;;;23.35;53.66;101339.44;4965516;28;20031;-81
2021/06/08 07:18:21;;;;;;;8.88;6.57;;;21.30;99.90;;;23.34;53.50;101335.75;4983635;28;20027;-85
2021/06/08 07:20:48;;;;;;;9.05;6.72;;;21.20;99.90;;;23.76;53.59;101342.13;4966737;28;20031;-84
2021/06/08 07:23:18;;;;;;;12.30;7.13;;;21.50;99.90;;;24.92;50.33;101337.13;4967597;28;20049;-83
2021/06/08 07:25:45;;;;;;;10.52;8.05;;;22.20;99.90;;;25.75;46.65;101340.56;4980792;28;20031;-86
2021/06/08 07:28:12;;;;;;;12.60;7.68;;;22.90;99.90;;;26.58;45.97;101341.69;4962942;28;20058;-85
2021/06/08 07:30:42;;;;;;;11.68;7.28;;;23.80;99.90;;;27.42;44.12;101331.81;4963916;28;20035;-83
2021/06/08 07:33:15;;;;;;;14.10;8.88;;;24.50;96.70;;;27.60;41.47;101345.66;4963316;28;20031;-82
2021/06/08 07:36:18;;;;;;;11.27;7.78;;;24.90;83.60;;;28.24;40.87;101355.81;4979010;28;20042;-87
2021/06/08 07:39:03;;;;;;;9.73;6.68;;;25.30;81.20;;;28.58;40.55;101344.31;4980855;28;20050;-84
2021/06/08 07:41:53;;;;;;;10.55;7.03;;;25.80;79.40;;;28.73;41.29;101345.47;4963604;28;20026;-85
2021/06/08 07:44:34;;;;;;;11.98;8.57;;;25.90;79.70;;;28.40;40.49;101344.16;4981590;28;20035;-84
2021/06/08 07:47:06;;;;;;;11.00;7.32;;;25.80;77.00;;;27.50;43.04;101336.13;4979921;28;20042;-83
2021/06/08 07:49:35;;;;;;;8.07;6.80;;;25.20;81.10;;;26.67;45.82;101333.25;4980428;28;20061;-86
2021/06/08 07:52:06;;;;;;;12.23;7.35;;;24.50;91.60;;;25.69;46.58;101333.75;4980913;28;20495;-83
2021/06/08 07:54:32;;;;;;;12.65;9.45;;;23.70;92.40;;;25.35;47.80;101333.34;4981186;28;20553;-84
2021/06/08 07:56:59;;;;;;;10.23;8.43;;;23.40;99.50;;;25.38;47.90;101347.56;4980035;28;20053;-82
2021/06/08 07:59:26;;;;;;;12.63;10.13;;;23.20;99.90;;;25.40;47.75;101342.19;4979500;28;20453;-83
2021/06/08 08:01:52;;;;;;;11.18;8.73;;;23.10;99.90;;;25.35;48.06;101341.91;4980539;28;20035;-84
2021/06/08 08:04:19;;;;;;;12.48;10.10;;;23.00;99.90;;;25.67;47.60;101342.81;4979604;28;20033;-84
2021/06/08 08:06:53;;;;;;;15.18;10.10;;;23.30;99.90;;;26.00;45.57;101348.56;4981028;28;20027;-82
2021/06/08 08:09:21;;;;;;;16.92;10.38;;;23.60;98.90;;;25.14;47.96;101343.22;4981826;28;20027;-83
2021/06/08 08:11:52;;;;;;;13.90;9.48;;;23.10;99.90;;;24.43;49.27;101349.53;4964900;28;20130;-86
2021/06/08 08:14:24;;;;;;;11.50;8.43;;;22.50;99.90;;;23.64;51.30;101349.22;4965050;28;20034;-83
2021/06/08 08:16:54;;;;;;;11.82;8.52;;;21.80;99.90;;;23.27;51.93;101353.00;4983591;28;20483;-84
2021/06/08 08:19:23;;;;;;;9.90;7.68;;;21.40;99.90;;;23.05;51.45;101358.16;4995851;28;20026;-81
2021/06/08 08:21:52;;;;;;;17.77;10.60;;;21.20;99.90;;;22.98;51.24;101349.72;4984598;28;20093;-84
2021/06/08 08:24:18;;;;;;;17.13;11.88;;;21.10;99.90;;;23.37;52.11;101352.03;4979825;28;20027;-84
2021/06/08 08:26:45;;;;;;;16.95;10.00;;;21.30;99.90;;;23.83;49.10;101350.53;4977425;28;20112;-82
2021/06/08 08:29:19;;;;;;;19.23;7.00;;;21.70;99.90;;;24.65;46.71;101354.41;4979384;28;20030;-86
2021/06/08 08:31:45;;;;;;;7.60;6.25;;;22.30;99.90;;;25.60;43.21;101345.84;4962639;28;20027;-83
2021/06/08 08:34:12;;;;;;;8.73;6.20;;;23.10;89.00;;;25.93;41.90;101343.81;4979543;28;20126;-85
2021/06/08 08:36:40;;;;;;;7.38;6.10;;;23.40;80.60;;;25.91;43.03;101345.50;4979967;28;20065;-84
2021/06/08 08:39:11;;;;;;;10.10;7.60;;;23.50;87.30;;;25.71;42.01;101347.63;4979640;28;20058;-85
2021/06/08 08:41:41;;;;;;;11.50;6.68;;;23.40;78.30;;;25.30;43.32;101346.09;4959355;28;20056;-84
2021/06/08 08:44:09;;;;;;;7.13;6.43;;;23.10;83.00;;;25.07;44.05;101346.22;4976505;28;20027;-84
2021/06/08 08:46:37;;;;;;;8.80;7.40;;;22.90;87.70;;;24.69;45.33;101353.50;4977466;28;20101;-84
2021/06/08 08:49:06;;;;;;;11.65;7.80;;;22.50;90.70;;;24.41;45.84;101357.72;4976839;28;20054;-82
2021/06/08 08:51:34;;;;;;;9.40;5.88;;;22.30;92.60;;;24.10;47.95;101346.41;4977558;28;20023;-84
2021/06/08 08:54:02;;;;;;;12.73;8.77;;;22.00;99.90;;;23.70;49.32;101347.47;4977279;28;20035;-85
2021/06/08 08:56:38;;;;;;;12.43;8.38;;;21.70;99.90;;;23.35;48.72;101340.25;4977241;28;20451;-84
2021/06/08 08:59:16;;;;;;;11.75;7.72;;;21.50;99.90;;;23.27;49.47;101341.59;4980414;28;20026;-85
2021/06/08 09:01:47;;;;;;;9.65;6.70;;;21.30;99.90;;;23.19;50.14;101340.06;4977852;28;20125;-84
2021/06/08 09:04:14;;;;;;;12.00;8.93;;;21.20;99.90;;;23.23;50.11;101340.84;4976622;28;20041;-82
2021/06/08 09:06:41;;;;;;;9.10;6.63;;;21.20;99.90;;;23.75;49.08;101341.31;4976616;28;20031;-82
2021/06/08 09:09:10;;;;;;;9.98;8.00;;;21.60;99.90;;;24.01;47.37;101328.22;4958353;28;20030;-83
2021/06/08 09:11:40;;;;;;;12.40;7.63;;;21.80;99.90;;;24.10;47.14;101337.84;4975907;28;20491;-83
2021/06/08 09:14:08;;;;;;;7.88;6.70;;;21.90;99.90;;;23.95;47.94;101335.69;4975529;28;20039;-83
2021/06/08 09:16:35;;;;;;;9.45;7.22;;;21.80;99.90;;;23.83;47.38;101331.38;4975568;28;20057;-82
2021/06/08 09:19:11;;;;;;;10.05;8.40;;;21.80;99.90;;;23.70;47.74;101330.38;4978474;28;20041;-82
2021/06/08 09:21:40;;;;;;;8.13;7.20;;;21.80;99.90;;;23.66;47.86;101326.78;4960828;28;20058;-81
2021/06/08 09:24:24;;;;;;;8.35;5.95;;;21.70;99.90;;;23.67;48.35;101328.38;4966403;28;20034;-83
2021/06/08 09:27:04;;;;;;;9.82;6.50;;;21.60;99.90;;;23.74;46.38;101324.59;4990489;28;20034;-80
2021/06/08 09:29:43;;;;;;;7.72;5.82;;;21.70;94.90;;;24.01;45.84;101323.34;4984076;28;20041;-83
2021/06/08 09:32:21;;;;;;;7.25;6.15;;;21.90;94.20;;;24.49;44.55;101320.03;4984664;28;20027;-83
2021/06/08 09:34:59;;;;;;;8.35;5.55;;;22.20;90.90;;;24.66;45.79;101324.56;4983690;28;20114;-83
2021/06/08 09:37:45;;;;;;;9.50;6.25;;;22.40;93.20;;;24.86;44.45;101310.31;4985497;28;20284;-83
2021/06/08 09:40:26;;;;;;;13.23;9.32;;;22.70;90.50;;;25.18;44.41;101309.59;4984502;28;20078;-83
2021/06/08 09:43:14;;;;;;;7.88;5.55;;;22.90;90.50;;;25.91;42.37;101314.03;4984932;28;20386;-82
2021/06/08 09:45:53;;;;;;;7.25;5.97;;;23.50;83.80;;;26.57;40.31;101313.47;4984112;28;20031;-80
2021/06/08 09:48:19;;;;;;;8.55;4.72;;;24.10;75.40;;;27.91;38.84;101311.41;4973497;28;20097;-82
2021/06/08 09:50:51;;;;;;;9.27;6.00;;;25.10;72.60;;;28.99;35.95;101313.69;4988449;28;20533;-82
2021/06/08 09:53:30;;;;;;;7.90;5.88;;;26.10;64.20;;;28.76;37.62;101306.34;4988730;28;20462;-82
2021/06/08 09:56:07;;;;;;;7.50;5.30;;;26.10;65.70;;;27.99;37.56;101309.91;4987651;28;20037;-84
2021/06/08 09:58:44;;;;;;;6.95;5.28;;;25.70;64.40;;;27.37;39.41;101303.72;4984245;28;20026;-81
2021/06/08 10:01:24;;;;;;;8.98;6.50;;;25.20;67.30;;;26.46;44.22;101304.38;4980351;28;20054;-84
2021/06/08 10:03:58;;;;;;;10.73;7.25;;;24.50;79.20;;;26.34;44.63;101302.25;4977041;28;20133;-83
2021/06/08 10:06:34;;;;;;;9.77;7.03;;;24.40;84.30;;;27.17;43.78;101300.25;4978730;28;20026;-85
2021/06/08 10:09:07;;;;;;;11.50;7.10;;;24.80;85.50;;;27.02;43.61;101307.69;4977456;28;20054;-84
2021/06/08 10:11:37;;;;;;;13.95;7.43;;;24.80;83.80;;;26.51;44.37;101309.56;4940760;29;20039;-82
2021/06/08 10:14:21;;;;;;;15.40;7.45;;;24.40;86.40;;;26.13;45.00;101301.59;4948700;29;20071;-82
2021/06/08 10:17:02;;;;;;;10.40;6.93;;;24.00;88.60;;;25.90;45.90;101290.31;4966983;29;20031;-84
2021/06/08 10:19:29;;;;;;;11.25;6.95;;;23.70;93.10;;;25.39;46.78;101306.28;4966398;28;20319;-86
2021/06/08 10:21:55;;;;;;;11.40;6.45;;;23.40;94.20;;;25.35;47.40;101302.69;4949264;29;20039;-86
2021/06/08 10:24:27;;;;;;;10.05;7.10;;;23.20;97.90;;;25.24;47.48;101302.13;4969671;28;20060;-87
2021/06/08 10:26:57;;;;;;;13.23;8.30;;;23.10;98.60;;;25.01;47.71;101305.91;4983165;28;20015;-84
2021/06/08 10:29:30;;;;;;;11.70;7.75;;;22.90;98.50;;;24.77;47.81;101303.53;4982760;28;20027;-83
2021/06/08 10:31:57;;;;;;;8.93;7.70;;;22.70;98.10;;;24.63;47.84;101305.44;4979810;28;20086;-85
2021/06/08 10:34:27;;;;;;;13.38;8.30;;;22.50;99.80;;;24.57;48.50;101309.25;4980522;28;20037;-83
2021/06/08 10:36:54;;;;;;;10.65;8.02;;;22.50;99.80;;;24.56;47.94;101302.72;4985596;28;20113;-84
2021/06/08 10:39:25;;;;;;;9.43;7.03;;;22.50;99.20;;;24.75;48.20;101300.34;4982502;28;20482;-87
2021/06/08 10:41:52;;;;;;;10.57;7.13;;;22.60;99.90;;;24.84;46.77;101300.56;4963765;28;20042;-83
2021/06/08 10:44:28;;;;;;;11.25;6.95;;;22.60;98.40;;;24.76;45.96;101301.94;4965746;28;20046;-85
2021/06/08 10:47:01;;;;;;;7.20;6.43;;;22.70;94.70;;;24.97;46.40;101290.91;4963243;28;20023;-87
2021/06/08 10:49:42;;;;;;;10.02;7.47;;;22.80;95.80;;;25.01;44.66;101299.41;4966095;28;20069;-84
2021/06/08 10:52:15;;;;;;;7.90;6.60;;;23.00;90.00;;;26.04;43.60;101300.59;4989869;28;20026;-82
2021/06/08 10:54:54;;;;;;;7.90;6.88;;;23.70;88.40;;;27.11;41.98;101296.34;4979077;28;20026;-84
2021/06/08 10:57:21;;;;;;;8.88;5.43;;;24.70;80.50;;;28.53;38.08;101292.41;4977568;28;20054;-86
2021/06/08 10:59:53;;;;;;;7.55;6.65;;;25.70;69.90;;;28.93;36.84;101295.44;4965778;28;20027;-81
2021/06/08 11:02:40;;;;;;;8.38;6.95;;;26.50;64.70;;;29.96;34.18;101284.22;4991914;28;20038;-80
2021/06/08 11:05:07;;;;;;;8.73;6.50;;;27.20;60.20;;;29.79;36.13;101289.47;4982232;28;20522;-83
2021/06/08 11:07:49;;;;;;;8.25;7.32;;;27.10;63.00;;;29.06;36.83;101285.44;4964413;28;20034;-83
2021/06/08 11:10:30;;;;;;;9.77;7.32;;;26.80;61.30;;;28.72;36.82;101292.09;4980219;28;20105;-83
2021/06/08 11:13:08;;;;;;;8.30;7.50;;;26.50;61.30;;;28.31;37.96;101288.69;4980886;28;20037;-85
2021/06/08 11:15:43;;;;;;;8.30;6.85;;;26.20;62.80;;;28.10;37.81;101290.25;4981657;28;20054;-85
2021/06/08 11:18:22;;;;;;;9.80;7.55;;;26.00;62.70;;;28.21;38.44;101293.56;4964827;28;20034;-83
2021/06/08 11:20:55;;;;;;;9.07;6.95;;;25.90;64.20;;;28.34;38.24;101284.88;4981010;28;20035;-85
2021/06/08 11:23:44;;;;;;;7.93;5.63;;;25.80;64.10;;;28.46;38.57;101281.16;4982328;28;20124;-86
2021/06/08 11:26:19;;;;;;;11.13;7.43;;;25.90;65.30;;;28.18;38.95;101291.63;4983780;28;20474;-83
2021/06/08 11:28:54;;;;;;;9.73;8.23;;;25.70;66.10;;;27.67;39.99;101285.97;4984461;28;20225;-83
2021/06/08 11:31:25;;;;;;;9.07;6.28;;;25.50;67.40;;;27.32;40.06;101286.28;4983902;28;20037;-84
2021/06/08 11:34:05;;;;;;;7.70;6.30;;;25.10;66.80;;;27.11;40.76;101285.69;4984444;28;20042;-83
2021/06/08 11:36:36;;;;;;;6.75;5.03;;;24.80;69.00;;;26.95;41.79;101282.91;4983996;28;20030;-84
2021/06/08 11:39:28;;;;;;;8.15;5.97;;;24.70;71.50;;;26.80;42.48;101289.50;4984472;28;20041;-85
2021/06/08 11:42:06;;;;;;;10.60;6.10;;;24.60;73.50;;;26.69;42.15;101287.75;4985066;28;20110;-85
2021/06/08 11:44:32;;;;;;;7.88;6.50;;;24.40;73.50;;;26.82;43.64;101275.53;4989208;28;20031;-81
2021/06/08 11:47:05;;;;;;;7.65;6.10;;;24.50;80.70;;;26.81;42.62;101277.59;4968317;28;20043;-86
2021/06/08 11:49:32;;;;;;;8.52;6.72;;;24.50;77.20;;;26.61;43.20;101274.09;4980323;28;20487;-84
2021/06/08 11:52:13;;;;;;;7.20;6.35;;;24.40;78.40;;;26.25;42.37;101271.41;4962940;28;20520;-81
2021/06/08 11:54:48;;;;;;;10.88;7.07;;;24.10;76.40;;;26.18;43.04;101271.59;4979627;28;20122;-85
2021/06/08 11:57:35;;;;;;;8.38;6.45;;;24.00;77.90;;;26.06;44.16;101269.47;4979051;28;20031;-86
2021/06/08 12:00:03;;;;;;;8.88;6.30;;;23.90;82.80;;;26.20;44.26;101272.75;4962148;28;20057;-84
2021/06/08 12:02:46;;;;;;;8.55;6.63;;;23.90;84.10;;;26.34;44.79;101265.84;4979306;28;20066;-85
2021/06/08 12:05:21;;;;;;;11.23;6.72;;;24.10;87.80;;;26.80;43.79;101270.25;4980909;28;20023;-85
2021/06/08 12:08:03;;;;;;;10.07;7.05;;;24.60;83.80;;;27.15;42.70;101268.38;4979944;28;20097;-85
2021/06/08 12:10:44;;;;;;;9.77;6.80;;;24.80;77.70;;;27.12;43.36;101270.09;4978710;28;20335;-83
2021/06/08 12:13:12;;;;;;;8.55;6.20;;;24.80;83.80;;;27.04;43.75;101262.16;4978633;28;20057;-84
2021/06/08 12:15:48;;;;;;;12.00;7.53;;;24.70;85.60;;;26.73;43.56;101268.38;4978492;28;20034;-82
2021/06/08 12:18:38;;;;;;;13.88;7.70;;;24.60;80.30;;;26.64;44.03;101265.38;4979490;28;20385;-82
2021/06/08 12:21:17;;;;;;;9.02;6.78;;;24.50;81.70;;;26.85;43.59;101263.97;4960574;28;20031;-84
2021/06/08 12:23:45;;;;;;;8.70;6.25;;;24.60;81.90;;;26.90;43.03;101262.59;4976626;28;20054;-84
2021/06/08 12:26:23;;;;;;;9.63;5.88;;;24.50;79.30;;;26.73;43.17;101258.97;4978994;28;20059;-82
2021/06/08 12:29:15;;;;;;;8.93;5.68;;;24.40;80.70;;;26.68;43.07;101251.75;4977958;28;20046;-81
2021/06/08 12:32:09;;;;;;;7.45;6.65;;;24.40;80.10;;;26.63;43.65;101252.31;4978458;28;20019;-84
2021/06/08 12:34:39;;;;;;;7.80;5.45;;;24.40;83.00;;;26.75;43.73;101249.94;4961212;28;20141;-83
2021/06/08 12:37:05;;;;;;;7.63;5.28;;;24.50;80.50;;;26.92;42.98;101243.69;4979819;28;20031;-84
2021/06/08 12:39:33;;;;;;;8.35;6.55;;;24.60;80.90;;;27.22;42.22;101248.06;4961759;28;20027;-83
2021/06/08 12:42:17;;;;;;;8.40;7.35;;;24.90;77.40;;;27.79;42.79;101246.19;4979158;28;20103;-85
2021/06/08 12:44:46;;;;;;;7.90;5.60;;;25.50;78.20;;;27.74;41.69;101254.13;4980056;28;20038;-83
2021/06/08 12:47:17;;;;;;;9.25;6.18;;;25.50;73.70;;;27.28;42.76;101246.25;4980057;28;20058;-82
2021/06/08 12:49:45;;;;;;;10.43;5.43;;;25.30;75.90;;;26.97;44.13;101250.94;4980364;28;20035;-83
2021/06/08 12:52:18;;;;;;;11.18;5.38;;;24.90;80.20;;;26.68;42.86;101248.09;4980753;28;20111;-83
2021/06/08 12:54:50;;;;;;;9.63;6.93;;;24.60;76.50;;;26.56;42.33;101248.84;4981124;28;20389;-86
2021/06/08 12:57:32;;;;;;;8.05;6.32;;;24.60;74.70;;;26.38;42.87;101252.22;5002980;23;20053;-89
2021/06/08 13:00:18;;;;;;;10.20;6.72;;;24.40;74.70;;;26.38;42.92;101249.38;4979566;28;20030;-85
2021/06/08 13:02:48;;;;;;;11.40;7.32;;;24.40;76.90;;;26.35;42.90;101246.59;5001549;28;20030;-86
2021/06/08 13:05:14;;;;;;;8.55;6.32;;;24.40;76.00;;;26.62;43.10;101244.16;4985013;28;20037;-86
2021/06/08 13:07:44;;;;;;;10.02;7.20;;;24.50;77.70;;;26.68;42.23;101234.53;4982443;28;20126;-85
2021/06/08 13:10:19;;;;;;;8.82;6.80;;;24.50;75.00;;;26.88;42.04;101237.25;4966569;28;20086;-88
2021/06/08 13:12:52;;;;;;;9.70;7.57;;;24.70;74.70;;;26.76;43.08;101245.81;4985833;28;20038;-85
2021/06/08 13:15:47;;;;;;;7.97;6.70;;;24.70;77.80;;;26.66;42.88;101237.06;4992655;28;20038;-85
2021/06/08 13:19:43;;;;;;;12.73;8.02;;;24.60;76.70;;;26.47;44.47;101235.19;4989194;28;20031;-85
2021/06/08 13:23:59;;;;;;;;;;;;;;;;;;;;;
2021/06/08 13:27:25;;;;;;;9.60;7.00;;;24.40;84.80;;;26.45;44.31;101243.44;4958654;28;20118;-87
2021/06/08 13:31:10;;;;;;;6.80;6.07;;;24.20;83.90;;;26.48;43.36;101238.88;4923585;29;20032;-86
2021/06/08 13:41:35;;;;;;;10.75;8.55;;;24.90;85.50;;;27.24;42.33;101232.00;4959947;28;20138;-86
2021/06/08 13:44:12;;;;;;;8.32;5.97;;;25.10;76.70;;;27.36;42.91;101226.72;4971550;28;20126;-86
2021/06/08 13:46:38;;;;;;;13.90;8.63;;;25.10;79.20;;;27.23;43.34;101235.31;4988483;28;20062;-89
2021/06/08 13:49:04;;;;;;;10.32;7.18;;;25.00;80.20;;;27.14;43.80;101229.47;4989410;28;20042;-85
2021/06/08 13:51:55;;;;;;;10.45;7.68;;;24.90;80.30;;;27.15;42.80;101239.69;4984816;28;20454;-87
2021/06/08 13:54:24;;;;;;;7.70;6.75;;;25.00;79.00;;;27.23;43.29;101220.97;4983428;28;20026;-88
2021/06/08 14:03:24;;;;;;;10.88;7.30;;;24.80;82.50;;;27.65;43.15;101216.72;4982420;28;20038;-86
2021/06/08 14:06:23;;;;;;;10.38;6.95;;;25.20;82.60;;;27.70;42.75;101210.41;4964676;28;20061;-87
2021/06/08 14:09:23;;;;;;;8.43;6.03;;;25.30;78.90;;;28.09;41.77;101214.81;4964478;28;20043;-86
2021/06/08 14:12:11;;;;;;;10.40;7.25;;;25.70;76.30;;;28.73;39.19;101209.53;4961214;28;20047;-86
2021/06/08 14:14:46;;;;;;;10.35;7.50;;;26.30;68.60;;;28.89;38.80;101199.88;4933454;28;20039;-84
2021/06/08 14:17:26;;;;;;;9.88;6.50;;;26.40;67.70;;;28.59;39.37;101202.22;4948075;29;20063;-85
2021/06/08 14:20:03;;;;;;;13.45;9.70;;;26.40;67.80;;;27.79;40.06;101198.22;4970670;28;20054;-86
2021/06/08 14:22:37;;;;;;;10.02;8.52;;;26.00;67.10;;;27.66;39.97;101197.44;4966586;28;20127;-86
2021/06/08 14:25:04;;;;;;;8.23;7.28;;;25.70;67.60;;;27.30;41.90;101194.94;4984108;28;20446;-86
2021/06/08 14:27:35;;;;;;;11.60;7.95;;;25.30;71.90;;;26.94;42.34;101180.97;4981251;28;20034;-86
2021/06/08 14:31:06;;;;;;;12.50;7.60;;;25.00;71.80;;;26.60;43.58;101180.78;4979363;28;20414;-86
2021/06/08 14:33:40;;;;;;;11.82;8.32;;;24.70;77.70;;;26.35;44.61;101172.94;4981833;28;20035;-84
2021/06/08 14:36:33;;;;;;;10.30;7.85;;;24.40;82.10;;;26.18;45.24;101171.41;4980607;28;20027;-88
2021/06/08 14:39:28;;;;;;;10.40;7.90;;;24.20;87.20;;;25.95;44.42;101169.56;4962312;28;20034;-89
2021/06/08 14:42:59;;;;;;;7.40;6.63;;;24.00;82.90;;;26.69;45.75;101187.44;4961067;28;20042;-87
2021/06/08 14:45:26;;;;;;;10.13;8.43;;;24.40;90.70;;;27.27;42.63;101172.13;4984672;28;20031;-86
2021/06/08 14:47:52;;;;;;;10.35;7.07;;;24.90;78.10;;;27.94;42.05;101167.72;4985303;28;20038;-86
2021/06/08 14:50:22;;;;;;;10.10;7.25;;;25.30;78.80;;;28.06;40.07;101161.13;4965001;28;20027;-86
2021/06/08 14:53:00;;;;;;;9.52;7.47;;;25.60;71.50;;;28.01;40.33;101169.53;4967321;28;20034;-87
2021/06/08 14:55:26;;;;;;;8.63;6.50;;;25.80;70.30;;;28.09;41.23;101168.03;4982803;28;20093;-86
2021/06/08 14:58:03;;;;;;;13.02;8.13;;;25.80;72.60;;;28.21;41.34;101170.84;4987647;28;20461;-86
2021/06/08 15:00:32;;;;;;;10.23;7.05;;;26.00;72.30;;;28.14;40.14;101159.63;4973491;28;20035;-86
2021/06/08 15:03:10;;;;;;;7.88;6.35;;;26.00;69.20;;;27.65;41.13;101152.78;4993119;28;20078;-91
2021/06/08 15:05:37;;;;;;;9.88;6.97;;;25.50;70.70;;;27.06;42.28;101162.97;4983792;28;20042;-88
2021/06/08 15:08:07;;;;;;;10.82;8.65;;;25.00;72.70;;;26.69;44.01;101164.53;4964270;28;20038;-89
2021/06/08 15:10:40;;;;;;;9.10;6.88;;;24.70;78.50;;;26.99;43.26;101148.88;4976751;28;20035;-88
2021/06/08 15:13:06;;;;;;;10.45;7.30;;;24.80;79.80;;;27.62;42.65;101148.78;4981586;28;20037;-86
2021/06/08 15:15:35;;;;;;;10.93;7.53;;;25.30;78.40;;;28.29;40.73;101159.88;4987433;28;20037;-88
2021/06/08 15:18:02;;;;;;;9.48;7.13;;;25.80;72.60;;;28.83;40.75;101152.91;4990778;28;20042;-88
2021/06/08 15:20:28;;;;;;;7.90;6.28;;;26.30;73.00;;;29.07;39.29;101154.75;4982180;28;20023;-86
2021/06/08 15:22:54;;;;;;;11.32;8.57;;;26.50;68.40;;;28.78;39.70;101146.47;4979787;28;20038;-88
2021/06/08 15:25:32;;;;;;;10.27;8.15;;;26.60;68.40;;;28.59;40.50;101156.25;4963838;28;20562;-87
2021/06/08 15:28:02;;;;;;;7.85;6.43;;;26.40;69.30;;;28.13;41.50;101149.41;4964443;28;20030;-88
2021/06/08 15:30:40;;;;;;;11.05;7.32;;;26.00;71.60;;;27.43;42.83;101151.91;4979001;28;20406;-87
2021/06/08 15:33:15;;;;;;;8.90;7.38;;;25.50;73.90;;;26.76;43.95;101154.91;4963060;28;20094;-89
2021/06/08 15:36:09;;;;;;;8.27;7.28;;;25.00;76.30;;;26.46;45.56;101143.97;4949522;28;20039;-87
2021/06/08 15:38:52;;;;;;;10.80;9.68;;;24.70;84.20;;;26.12;46.78;101142.50;4964634;28;20097;-88
2021/06/08 15:54:22;;;;;;;11.82;10.43;;;24.10;97.10;;;25.95;48.78;101137.28;4951911;28;20041;-87
2021/06/08 15:56:49;;;;;;;12.57;9.75;;;24.10;98.80;;;25.93;49.62;101152.06;4982579;28;20060;-86
2021/06/08 15:59:21;;;;;;;14.25;11.50;;;24.00;99.90;;;25.95;49.86;101146.66;4984651;28;20125;-87
2021/06/08 16:01:47;;;;;;;11.85;9.73;;;24.00;99.90;;;25.94;50.41;101150.81;4987399;28;20055;-86
2021/06/08 16:07:50;;;;;;;9.57;8.23;;;24.20;99.90;;;26.56;46.82;101143.66;4949081;28;20038;-87
2021/06/08 16:10:25;;;;;;;7.47;6.47;;;24.50;96.30;;;26.87;45.77;101143.13;4971712;28;20125;-84
2021/06/08 16:13:18;;;;;;;13.60;8.88;;;24.70;93.60;;;26.76;43.62;101143.44;4985316;28;20031;-85
2021/06/08 16:15:44;;;;;;;10.95;9.30;;;24.70;80.70;;;26.56;44.82;101148.56;4986506;28;20081;-86
2021/06/08 16:18:10;;;;;;;14.10;11.32;;;24.50;87.90;;;26.25;46.62;101138.91;4968861;28;20124;-87
2021/06/08 16:20:37;;;;;;;11.48;9.52;;;24.40;93.20;;;25.97;47.59;101138.44;4984005;28;20026;-88
2021/06/08 16:23:10;;;;;;;16.17;12.70;;;24.20;96.50;;;25.68;49.52;101137.63;4985142;28;20106;-87
2021/06/08 16:25:44;;;;;;;20.08;16.00;;;23.90;99.90;;;25.62;49.17;101128.00;4985220;28;20030;-89
2021/06/08 16:28:10;;;;;;;13.90;12.40;;;23.90;99.40;;;25.98;48.73;101136.38;4985052;28;20107;-88
2021/06/08 16:30:38;;;;;;;12.63;9.68;;;24.00;99.90;;;26.32;48.21;101128.03;4984536;28;20031;-87
2021/06/08 16:33:30;;;;;;;19.40;13.07;;;24.20;99.90;;;26.52;48.10;101139.31;4967672;28;20094;-90
2021/06/08 16:36:22;;;;;;;15.70;14.10;;;24.40;99.90;;;26.36;49.20;101125.06;4972877;28;20046;-88
2021/06/08 16:38:48;;;;;;;15.95;13.98;;;24.60;99.90;;;26.34;49.62;101133.28;4989957;28;20034;-92
2021/06/08 16:41:30;;;;;;;16.10;13.70;;;24.60;99.90;;;26.12;49.97;101133.09;4989057;28;20114;-89
2021/06/08 16:44:00;;;;;;;17.27;14.38;;;24.40;99.90;;;25.87;51.17;101133.03;4989185;28;20019;-87
2021/06/08 16:46:52;;;;;;;17.02;13.98;;;24.20;99.90;;;25.61;51.83;101132.91;4990143;28;20047;-89
2021/06/08 16:49:22;;;;;;;19.73;15.13;;;24.00;99.90;;;25.31;52.55;101136.13;4988732;28;20098;-87
2021/06/08 16:54:20;;;;;;;29.05;14.98;;;23.40;99.90;;;24.79;53.34;101129.66;4988191;28;20026;-89
2021/06/08 16:57:32;;;;;;;15.48;12.77;;;23.30;99.90;;;24.63;53.64;101134.06;4986500;28;20035;-88
2021/06/08 16:59:57;;;;;;;14.15;12.10;;;23.00;99.90;;;24.55;53.07;101129.78;4968070;28;20077;-90
2021/06/08 17:03:06;;;;;;;;;;;;;;;;;;;;;
2021/06/08 17:05:33;;;;;;;16.33;12.02;;;22.80;99.90;;;24.08;54.34;101120.56;4987060;28;20163;-92
2021/06/08 17:08:01;;;;;;;16.23;12.52;;;22.60;99.90;;;24.07;53.47;101133.25;4965970;28;20030;-88
2021/06/08 17:10:31;;;;;;;13.98;11.48;;;22.50;99.90;;;24.10;53.44;101120.97;4984070;28;20086;-85
2021/06/08 17:12:58;;;;;;;11.05;9.73;;;22.50;99.90;;;24.23;53.84;101126.84;4982408;28;20125;-89
2021/06/08 17:16:04;;;;;;;16.17;13.63;;;22.60;99.90;;;24.16;53.60;101124.13;4968677;28;20040;-90
2021/06/08 17:18:31;;;;;;;13.73;11.48;;;22.50;99.90;;;24.33;53.98;101125.81;4973804;28;20026;-89
2021/06/08 17:20:58;;;;;;;13.48;11.65;;;22.60;99.90;;;24.42;53.74;101120.28;4988407;28;20038;-88
2021/06/08 17:23:25;;;;;;;13.10;10.73;;;22.70;99.90;;;24.56;53.50;101130.59;4995282;28;20045;-88
2021/06/08 17:25:55;;;;;;;12.85;10.65;;;22.80;99.90;;;24.59;53.47;101124.00;4991481;28;20034;-89
2021/06/08 17:28:23;;;;;;;14.38;12.38;;;22.80;99.90;;;24.64;52.94;101123.47;4991272;28;20094;-88
2021/06/08 17:30:51;;;;;;;17.38;12.32;;;22.90;99.90;;;24.82;52.93;101131.66;4992593;28;20050;-87
2021/06/08 17:33:18;;;;;;;16.75;14.68;;;23.00;99.90;;;24.87;53.53;101129.06;4989597;28;20026;-87
2021/06/08 17:35:51;;;;;;;17.77;13.85;;;23.10;99.90;;;24.70;53.98;101126.59;4986171;28;20031;-88
2021/06/08 17:38:21;;;;;;;18.25;14.07;;;23.10;99.90;;;24.59;54.02;101124.78;4969566;28;20104;-88
2021/06/08 17:40:50;;;;;;;21.67;15.82;;;23.00;99.90;;;24.65;53.79;101125.88;4952894;28;20134;-87
2021/06/08 17:43:19;;;;;;;16.42;14.13;;;22.90;99.90;;;24.51;54.95;101133.97;4972902;28;20093;-90
2021/06/08 17:45:46;;;;;;;18.13;13.52;;;22.80;99.90;;;24.38;54.67;101122.41;4987274;28;20022;-89
2021/06/08 17:48:13;;;;;;;15.30;12.18;;;22.70;99.90;;;24.37;54.68;101115.09;4983498;28;20502;-89
2021/06/08 17:51:21;;;;;;;19.58;15.02;;;22.70;99.90;;;24.22;55.10;101130.13;4985236;28;20046;-87
2021/06/08 17:53:58;;;;;;;21.02;14.90;;;22.70;99.90;;;24.15;55.90;101125.38;4968716;28;20142;-89
2021/06/08 17:56:36;;;;;;;17.30;14.32;;;22.60;99.90;;;24.03;56.44;101121.09;4954292;29;20051;-89
2021/06/08 17:59:02;;;;;;;19.00;15.75;;;22.50;99.90;;;23.94;56.99;101122.94;4948186;29;20043;-91
2021/06/08 18:01:32;;;;;;;17.27;13.05;;;22.40;99.90;;;23.89;57.56;101127.09;4965095;29;20031;-86
2021/06/08 18:03:59;;;;;;;23.00;16.13;;;22.30;99.90;;;23.76;58.18;101125.34;4950345;29;20066;-86
2021/06/08 18:06:25;;;;;;;15.80;13.95;;;22.30;99.90;;;23.69;58.53;101125.47;4970452;28;20032;-86
2021/06/08 18:09:14;;;;;;;;;;;;;;;;;;;;;
2021/06/08 18:11:40;;;;;;;19.42;17.02;;;22.00;99.90;;;23.41;59.80;101138.19;4944015;29;20118;-90
2021/06/08 18:14:06;;;;;;;19.48;17.10;;;21.90;99.90;;;23.31;60.40;101139.97;4925939;29;20177;-89
2021/06/08 18:16:42;;;;;;;18.33;15.55;;;21.80;99.90;;;23.25;60.73;101138.03;4925879;29;20523;-90
2021/06/08 18:19:16;;;;;;;;;;;21.70;99.90;;;23.12;60.75;101137.06;4927961;29;20042;-91